Time;durP1;ratioP1;P1;durP2;ratioP2;P2;SDS_P1;SDS_P2;PMS_P1;PMS_P2;Temp;Humidity;BMP_temperature;BMP_pressure;BME280_temperature;BME280_humidity;BME280_pressure;Samples;Min_cycle;Max_cycle;Signal;HPM_P1;HPM_P2
2023/12/27 00:00:41;;;;;;;3.72;1.38;;;;;;;5.48;100.00;98712.13;2579979;28;20454;-88
2023/12/27 00:01:59;;;;;;;3.83;1.50;;;;;;;5.27;100.00;98718.22;2582300;28;20045;-88
2023/12/27 00:03:17;;;;;;;3.40;1.80;;;;;;;5.22;100.00;98715.63;2590248;28;20076;-88
2023/12/27 00:04:33;;;;;;;3.55;1.90;;;;;;;5.25;100.00;98713.88;2593400;28;20129;-88
2023/12/27 00:05:49;;;;;;;3.47;2.00;;;;;;;5.18;100.00;98719.09;2596333;28;20061;-89
2023/12/27 00:07:05;;;;;;;6.85;2.05;;;;;;;5.33;100.00;98712.16;2603947;28;20071;-89
2023/12/27 00:08:21;;;;;;;4.95;1.83;;;;;;;5.36;100.00;98718.19;2582028;28;20034;-88
2023/12/27 00:09:37;;;;;;;5.78;1.75;;;;;;;5.50;100.00;98717.28;2591356;28;20034;-88
2023/12/27 00:10:53;;;;;;;5.60;2.10;;;;;;;5.50;100.00;98719.88;2596123;28;20033;-88
2023/12/27 00:12:09;;;;;;;5.65;2.00;;;;;;;5.48;100.00;98719.03;2593140;28;20038;-88
2023/12/27 00:13:24;;;;;;;3.78;1.73;;;;;;;5.49;100.00;98715.56;2595952;28;20455;-88
2023/12/27 00:14:40;;;;;;;4.13;1.88;;;;;;;5.52;100.00;98718.16;2597333;28;20071;-89
2023/12/27 00:15:56;;;;;;;4.63;1.70;;;;;;;5.67;100.00;98719.81;2585545;28;20107;-88
2023/12/27 00:17:12;;;;;;;4.13;1.80;;;;;;;5.53;100.00;98724.22;2591645;28;20045;-88
2023/12/27 00:18:28;;;;;;;6.07;2.03;;;;;;;5.56;100.00;98722.47;2585677;28;20069;-89
2023/12/27 00:19:44;;;;;;;4.88;1.98;;;;;;;5.64;100.00;98722.44;2591250;28;20028;-88
2023/12/27 00:21:00;;;;;;;4.90;1.83;;;;;;;5.72;100.00;98725.00;2596116;28;20045;-88
2023/12/27 00:22:17;;;;;;;3.42;1.80;;;;;;;5.56;100.00;98721.59;2587374;28;20121;-88
2023/12/27 00:23:33;;;;;;;5.25;2.08;;;;;;;5.61;100.00;98722.47;2570137;28;20066;-88
2023/12/27 00:24:48;;;;;;;4.32;1.75;;;;;;;5.55;100.00;98728.53;2581398;28;20052;-89
2023/12/27 00:26:04;;;;;;;4.07;1.70;;;;;;;5.50;100.00;98732.88;2580262;28;20395;-88
2023/12/27 00:27:20;;;;;;;2.63;1.67;;;;;;;5.31;100.00;98729.47;2590884;28;20037;-88
2023/12/27 00:28:36;;;;;;;4.35;1.85;;;;;;;5.34;100.00;98726.88;2596192;28;20045;-88
2023/12/27 00:29:52;;;;;;;5.20;2.03;;;;;;;5.15;100.00;98726.88;2586468;28;20413;-88
2023/12/27 00:31:08;;;;;;;3.75;2.08;;;;;;;5.08;100.00;98730.34;2591342;28;20033;-88
2023/12/27 00:32:24;;;;;;;3.63;1.58;;;;;;;5.12;100.00;98732.06;2586611;28;20037;-88
2023/12/27 00:33:40;;;;;;;3.75;1.52;;;;;;;5.16;100.00;98732.94;2581015;28;20041;-88
2023/12/27 00:34:56;;;;;;;6.00;1.83;;;;;;;5.19;100.00;98736.41;2590294;28;20037;-88
2023/12/27 00:36:12;;;;;;;2.45;1.42;;;;;;;5.12;100.00;98733.81;2587070;28;20050;-88
2023/12/27 00:37:28;;;;;;;6.93;1.60;;;;;;;5.15;100.00;98742.44;2579653;28;20038;-88
2023/12/27 00:38:44;;;;;;;3.45;1.33;;;;;;;5.29;100.00;98742.44;2591154;28;20041;-88
2023/12/27 00:40:00;;;;;;;3.17;1.70;;;;;;;5.53;100.00;98745.88;2596198;28;20415;-88
2023/12/27 00:41:16;;;;;;;3.25;1.45;;;;;;;5.54;100.00;98746.72;2597566;28;20140;-90
2023/12/27 00:42:32;;;;;;;2.63;1.50;;;;;;;5.22;100.00;98743.31;2585963;28;20045;-89
2023/12/27 00:43:48;;;;;;;4.40;1.50;;;;;;;5.28;100.00;98748.50;2591105;28;20037;-87
2023/12/27 00:45:04;;;;;;;4.05;1.50;;;;;;;5.22;100.00;98754.56;2595867;28;20044;-87
2023/12/27 00:46:20;;;;;;;2.10;1.33;;;;;;;4.99;100.00;98752.00;2597755;28;20041;-89
2023/12/27 00:47:36;;;;;;;4.90;1.58;;;;;;;4.81;100.00;98752.84;2596529;28;20076;-89
2023/12/27 00:48:52;;;;;;;2.53;1.30;;;;;;;4.42;100.00;98755.41;2597438;28;20387;-90
2023/12/27 00:50:09;;;;;;;3.92;1.70;;;;;;;4.56;100.00;98765.78;2585721;28;20037;-90
2023/12/27 00:51:25;;;;;;;2.92;1.60;;;;;;;4.46;100.00;98764.03;2591401;28;20109;-89
2023/12/27 00:52:41;;;;;;;2.83;1.65;;;;;;;4.61;100.00;98758.91;2596090;28;20033;-89
2023/12/27 00:53:57;;;;;;;3.38;1.80;;;;;;;4.70;100.00;98751.97;2597235;28;20045;-87
2023/12/27 00:55:13;;;;;;;3.35;1.60;;;;;;;4.59;100.00;98770.97;2596400;28;20359;-87
2023/12/27 00:56:29;;;;;;;5.43;1.85;;;;;;;4.49;100.00;98764.06;2586639;28;20042;-90
2023/12/27 00:57:45;;;;;;;5.00;1.83;;;;;;;4.28;100.00;98765.72;2589493;28;20096;-89
2023/12/27 00:59:01;;;;;;;5.00;1.58;;;;;;;4.08;100.00;98763.09;2591286;28;20092;-89
2023/12/27 01:00:17;;;;;;;3.92;1.58;;;;;;;4.37;100.00;98768.38;2590972;28;20025;-90
2023/12/27 01:01:33;;;;;;;4.75;1.60;;;;;;;4.44;100.00;98769.25;2605321;28;20041;-89
2023/12/27 01:02:49;;;;;;;2.90;1.65;;;;;;;4.38;100.00;98770.09;2602958;28;20060;-90
2023/12/27 01:04:05;;;;;;;6.50;1.80;;;;;;;4.41;100.00;98771.84;2595510;28;20064;-90
2023/12/27 01:05:21;;;;;;;4.32;1.55;;;;;;;4.41;100.00;98773.53;2586789;28;20462;-89
2023/12/27 01:06:37;;;;;;;3.55;1.63;;;;;;;4.41;100.00;98773.53;2589697;28;20072;-89
2023/12/27 01:07:53;;;;;;;2.17;1.50;;;;;;;4.38;100.00;98776.97;2596747;28;20045;-87
2023/12/27 01:09:09;;;;;;;5.00;2.00;;;;;;;4.49;100.00;98779.63;2595229;28;20133;-87
2023/12/27 01:10:25;;;;;;;3.58;1.67;;;;;;;4.43;100.00;98787.38;2596458;28;20041;-90
2023/12/27 01:11:41;;;;;;;4.25;2.00;;;;;;;4.29;100.00;98797.72;2595821;28;20038;-89
2023/12/27 01:12:57;;;;;;;4.90;1.73;;;;;;;4.31;100.00;98789.06;2603699;28;20029;-89
2023/12/27 01:14:13;;;;;;;5.63;1.70;;;;;;;4.43;100.00;98789.97;2601604;28;20034;-89
2023/12/27 01:15:29;;;;;;;3.25;1.65;;;;;;;4.44;100.00;98791.69;2586887;28;20068;-89
2023/12/27 01:16:45;;;;;;;4.28;1.70;;;;;;;4.27;100.00;98797.69;2595515;28;20057;-89
2023/12/27 01:18:01;;;;;;;4.13;1.90;;;;;;;4.36;100.00;98804.63;2586645;28;20550;-89
2023/12/27 01:19:17;;;;;;;4.80;1.65;;;;;;;4.16;100.00;98800.25;2589812;28;20376;-89
2023/12/27 01:20:34;;;;;;;2.70;1.52;;;;;;;4.25;100.00;98802.03;2586296;28;20037;-89
2023/12/27 01:21:50;;;;;;;2.28;1.33;;;;;;;4.33;100.00;98805.50;2585674;28;20030;-89
2023/12/27 01:23:05;;;;;;;2.88;2.03;;;;;;;4.37;100.00;98804.66;2586768;28;20033;-89
2023/12/27 01:24:21;;;;;;;3.03;2.00;;;;;;;4.35;100.00;98811.56;2575174;28;20046;-89
2023/12/27 01:25:38;;;;;;;6.00;1.73;;;;;;;4.33;100.00;98813.28;2580685;28;20096;-90
2023/12/27 01:26:54;;;;;;;4.93;1.70;;;;;;;4.08;100.00;98815.78;2575178;28;20042;-89
2023/12/27 01:28:10;;;;;;;2.85;1.58;;;;;;;4.18;100.00;98816.69;2580118;28;20042;-90
2023/12/27 01:29:27;;;;;;;3.60;1.58;;;;;;;4.17;100.00;98822.72;2575238;28;20078;-89
2023/12/27 01:30:43;;;;;;;5.03;1.80;;;;;;;3.86;100.00;98816.53;2578508;28;20041;-89
2023/12/27 01:32:00;;;;;;;3.45;1.90;;;;;;;4.24;100.00;98824.47;2590267;28;20400;-89
2023/12/27 01:33:17;;;;;;;4.88;1.60;;;;;;;3.99;100.00;98826.09;2595706;28;20067;-89
2023/12/27 01:34:37;;;;;;;6.50;2.08;;;;;;;4.29;100.00;98821.03;2597069;28;20041;-89
2023/12/27 01:35:53;;;;;;;5.95;1.67;;;;;;;4.27;100.00;98821.03;2595905;28;20128;-89
2023/12/27 01:37:08;;;;;;;3.28;1.90;;;;;;;4.08;100.00;98820.97;2596452;28;20045;-90
2023/12/27 01:38:24;;;;;;;3.13;1.63;;;;;;;4.09;100.00;98822.69;2595143;28;20111;-89
2023/12/27 01:39:40;;;;;;;4.50;1.58;;;;;;;4.10;100.00;98824.44;2596515;28;20099;-89
2023/12/27 01:40:56;;;;;;;5.45;1.60;;;;;;;3.93;100.00;98836.44;2585180;28;20419;-89
2023/12/27 01:42:12;;;;;;;2.58;1.50;;;;;;;4.00;100.00;98826.97;2590771;28;20091;-89
2023/12/27 01:43:28;;;;;;;3.03;1.80;;;;;;;4.20;100.00;98832.25;2595432;28;20523;-89
2023/12/27 01:44:45;;;;;;;4.40;1.80;;;;;;;4.36;100.00;98831.44;2597004;28;20088;-89
2023/12/27 01:46:02;;;;;;;3.45;1.83;;;;;;;4.39;100.00;98838.34;2595725;28;20057;-89
2023/12/27 01:47:18;;;;;;;3.28;1.50;;;;;;;4.34;100.00;98843.53;2586185;28;20038;-89
2023/12/27 01:48:35;;;;;;;4.07;1.85;;;;;;;4.19;100.00;98841.75;2589626;28;20063;-89
2023/12/27 01:49:53;;;;;;;2.75;1.67;;;;;;;4.13;100.00;98846.03;2586425;28;20068;-89
2023/12/27 01:51:12;;;;;;;3.40;1.60;;;;;;;4.22;100.00;98851.25;2598415;28;20036;-89
2023/12/27 01:52:28;;;;;;;2.30;1.70;;;;;;;4.31;100.00;98847.84;2594352;28;20153;-89
2023/12/27 01:53:44;;;;;;;2.25;1.30;;;;;;;4.19;100.00;98849.50;2591194;28;20040;-89
2023/12/27 01:55:00;;;;;;;2.97;1.70;;;;;;;4.07;100.00;98842.56;2588233;28;20044;-89
2023/12/27 01:56:16;;;;;;;4.18;1.73;;;;;;;3.96;100.00;98842.47;2591397;28;20045;-89
2023/12/27 01:57:33;;;;;;;3.67;1.60;;;;;;;4.03;100.00;98853.75;2588624;28;20113;-89
2023/12/27 01:58:49;;;;;;;5.95;1.60;;;;;;;4.10;100.00;98857.22;2591034;28;20047;-89
2023/12/27 02:00:12;;;;;;;5.15;1.80;;;;;;;4.18;100.00;98857.25;2588663;28;20042;-89
2023/12/27 02:01:28;;;;;;;2.70;1.40;;;;;;;4.29;100.00;98853.00;2593168;28;20049;-89
2023/12/27 02:02:44;;;;;;;5.63;1.63;;;;;;;4.40;100.00;98852.19;2588800;28;20041;-89
2023/12/27 02:03:59;;;;;;;3.13;1.70;;;;;;;4.61;100.00;98849.69;2591464;28;20128;-89
2023/12/27 02:05:15;;;;;;;3.75;1.50;;;;;;;4.65;100.00;98853.13;2609056;28;20033;-89
2023/12/27 02:06:33;;;;;;;4.30;1.65;;;;;;;4.69;100.00;98854.00;2593236;28;20069;-89
2023/12/27 02:07:49;;;;;;;5.00;1.63;;;;;;;4.54;100.00;98858.28;2592000;28;20132;-88
2023/12/27 02:09:05;;;;;;;4.70;1.52;;;;;;;4.68;100.00;98863.53;2587775;28;20075;-89
2023/12/27 02:10:21;;;;;;;3.75;1.60;;;;;;;4.78;100.00;98861.81;2591701;28;20453;-89
2023/12/27 02:11:38;;;;;;;6.63;1.67;;;;;;;4.88;100.00;98862.69;2588346;28;20039;-89
2023/12/27 02:12:56;;;;;;;3.42;1.67;;;;;;;4.56;100.00;98859.16;2590905;28;20491;-88
2023/12/27 02:14:12;;;;;;;3.60;1.70;;;;;;;4.66;100.00;98863.50;2588489;28;20132;-90
2023/12/27 02:15:28;;;;;;;4.38;1.80;;;;;;;4.75;100.00;98861.78;2581273;28;20038;-89
2023/12/27 02:16:45;;;;;;;3.03;1.60;;;;;;;4.99;100.00;98862.69;2591425;28;20045;-89
2023/12/27 02:18:03;;;;;;;8.25;2.60;;;;;;;5.01;100.00;98863.56;2597082;28;20067;-88
2023/12/27 02:19:23;;;;;;;3.45;1.63;;;;;;;5.11;100.00;98857.53;2588449;28;20041;-89
2023/12/27 02:20:40;;;;;;;5.07;1.70;;;;;;;5.22;100.00;98855.81;2592647;28;20052;-89
2023/12/27 02:21:58;;;;;;;4.03;2.15;;;;;;;5.27;100.00;98860.13;2594193;28;20091;-89
2023/12/27 02:23:18;;;;;;;3.50;1.42;;;;;;;5.28;100.00;98867.03;2592127;28;20528;-89
2023/12/27 02:24:35;;;;;;;4.65;1.50;;;;;;;5.35;100.00;98856.66;2598846;28;20068;-89
2023/12/27 02:25:51;;;;;;;2.17;1.48;;;;;;;5.17;100.00;98857.56;2586723;28;20038;-89
2023/12/27 02:27:07;;;;;;;5.22;1.20;;;;;;;5.47;100.00;98848.03;2598292;28;20111;-89
2023/12/27 02:28:23;;;;;;;1.88;1.23;;;;;;;5.37;100.00;98844.53;2587148;28;20041;-89
2023/12/27 02:29:39;;;;;;;2.85;1.30;;;;;;;5.68;100.00;98837.59;2588539;28;20125;-89
2023/12/27 02:30:55;;;;;;;4.00;1.48;;;;;;;5.54;100.00;98838.50;2590417;28;20042;-89
2023/12/27 02:32:11;;;;;;;4.22;1.58;;;;;;;5.45;100.00;98838.50;2587788;28;20060;-89
2023/12/27 02:33:27;;;;;;;3.35;1.30;;;;;;;5.62;100.00;98839.34;2580673;28;20056;-89
2023/12/27 02:34:43;;;;;;;2.70;1.20;;;;;;;5.62;100.00;98836.72;2581646;28;20045;-89
2023/12/27 02:35:59;;;;;;;6.03;1.40;;;;;;;5.61;100.00;98841.94;2580685;28;20415;-89
2023/12/27 02:37:15;;;;;;;1.95;1.35;;;;;;;5.58;100.00;98842.81;2580260;28;20104;-89
2023/12/27 02:38:31;;;;;;;3.47;1.45;;;;;;;5.69;100.00;98845.38;2590927;28;20042;-89
2023/12/27 02:39:47;;;;;;;3.17;1.30;;;;;;;5.83;100.00;98842.78;2588073;28;20042;-89
2023/12/27 02:41:03;;;;;;;7.75;1.52;;;;;;;5.49;100.00;98846.28;2580612;28;20419;-89
2023/12/27 02:42:19;;;;;;;2.15;1.23;;;;;;;5.56;100.00;98849.75;2598257;28;20071;-89
2023/12/27 02:43:35;;;;;;;3.10;1.60;;;;;;;5.71;100.00;98846.25;2587033;28;20044;-89
2023/12/27 02:44:51;;;;;;;4.47;1.48;;;;;;;5.83;100.00;98849.69;2581421;28;20038;-89
2023/12/27 02:46:07;;;;;;;3.55;1.40;;;;;;;5.91;100.00;98848.78;2591639;28;20384;-89
2023/12/27 02:47:23;;;;;;;3.42;1.38;;;;;;;5.65;100.00;98844.50;2597158;28;20453;-89
2023/12/27 02:48:39;;;;;;;4.53;1.30;;;;;;;5.49;100.00;98853.19;2605184;28;20064;-89
2023/12/27 02:49:55;;;;;;;3.25;1.35;;;;;;;5.44;100.00;98870.53;2593202;28;20081;-89
2023/12/27 02:51:11;;;;;;;3.75;1.30;;;;;;;5.50;100.00;98870.50;2592427;28;20458;-89
2023/12/27 02:52:27;;;;;;;2.47;1.45;;;;;;;5.41;100.00;98868.78;2586678;28;20041;-89
2023/12/27 02:53:43;;;;;;;3.30;1.20;;;;;;;5.19;100.00;98873.09;2592010;28;20376;-89
2023/12/27 02:54:59;;;;;;;2.53;1.30;;;;;;;4.84;100.00;98876.53;2597113;28;20083;-89
2023/12/27 02:56:15;;;;;;;5.53;2.15;;;;;;;4.93;100.00;98869.63;2587364;28;20046;-89
2023/12/27 02:57:31;;;;;;;3.15;1.33;;;;;;;4.67;100.00;98866.94;2580968;28;20129;-89
2023/12/27 02:58:47;;;;;;;3.47;1.40;;;;;;;4.66;100.00;98867.81;2588485;28;20107;-89
2023/12/27 03:00:04;;;;;;;5.00;1.60;;;;;;;4.76;100.00;98869.56;2590761;28;20514;-89
2023/12/27 03:01:20;;;;;;;3.10;1.38;;;;;;;4.80;100.00;98880.84;2587785;28;20084;-89
2023/12/27 03:02:36;;;;;;;3.13;1.50;;;;;;;4.92;100.00;98880.88;2580762;28;20034;-89
2023/12/27 03:03:52;;;;;;;5.93;1.60;;;;;;;4.94;100.00;98873.94;2591904;28;20045;-89
2023/12/27 03:05:08;;;;;;;2.35;1.67;;;;;;;5.01;100.00;98874.81;2596901;28;20172;-89
2023/12/27 03:06:24;;;;;;;2.78;1.45;;;;;;;5.17;100.00;98873.13;2587994;28;20511;-89
2023/12/27 03:07:40;;;;;;;4.07;1.40;;;;;;;5.13;100.00;98865.31;2590779;28;20103;-89
2023/12/27 03:08:56;;;;;;;1.98;1.38;;;;;;;5.15;100.00;98869.63;2587510;28;20065;-89
2023/12/27 03:10:12;;;;;;;2.97;1.95;;;;;;;5.25;100.00;98875.72;2591176;28;20048;-89
2023/12/27 03:11:30;;;;;;;2.83;1.38;;;;;;;5.24;100.00;98871.41;2598273;28;20433;-90
2023/12/27 03:12:46;;;;;;;6.53;1.73;;;;;;;5.31;100.00;98883.50;2592932;28;20034;-89
2023/12/27 03:14:03;;;;;;;3.53;1.58;;;;;;;5.37;100.00;98880.88;2601735;28;20037;-89
2023/12/27 03:15:19;;;;;;;2.97;1.50;;;;;;;5.46;100.00;98882.66;2592640;28;20587;-89
2023/12/27 03:16:35;;;;;;;4.35;1.48;;;;;;;5.58;100.00;98883.50;2601526;28;20037;-89
2023/12/27 03:17:51;;;;;;;4.78;1.55;;;;;;;5.59;100.00;98886.09;2593479;28;20040;-88
2023/12/27 03:19:07;;;;;;;2.17;1.30;;;;;;;5.80;100.00;98886.97;2600724;28;20045;-89
2023/12/27 03:20:23;;;;;;;3.22;1.40;;;;;;;5.74;100.00;98887.81;2610877;28;20116;-89
2023/12/27 03:21:39;;;;;;;1.30;1.10;;;;;;;5.79;100.00;98883.47;2592461;28;20149;-89
2023/12/27 03:22:55;;;;;;;3.80;1.25;;;;;;;5.74;100.00;98885.22;2591993;28;20533;-89
2023/12/27 03:24:11;;;;;;;4.05;1.88;;;;;;;5.73;100.00;98880.91;2592582;28;20092;-89
2023/12/27 03:25:27;;;;;;;3.60;1.30;;;;;;;5.65;100.00;98886.06;2591618;28;20042;-89
2023/12/27 03:26:43;;;;;;;1.45;1.35;;;;;;;5.85;100.00;98889.53;2592106;28;20471;-89
2023/12/27 03:27:59;;;;;;;2.20;1.23;;;;;;;5.51;100.00;98882.63;2587640;28;20045;-89
2023/12/27 03:29:15;;;;;;;3.10;1.38;;;;;;;5.55;100.00;98880.91;2590020;28;20049;-89
2023/12/27 03:30:31;;;;;;;3.22;1.60;;;;;;;5.33;100.00;98879.16;2607553;28;20422;-89
2023/12/27 03:31:47;;;;;;;2.35;1.50;;;;;;;5.38;100.00;98881.78;2591987;28;20504;-89
2023/12/27 03:33:03;;;;;;;4.10;2.53;;;;;;;5.40;100.00;98885.22;2592238;28;20036;-89
2023/12/27 03:34:19;;;;;;;4.72;1.73;;;;;;;5.53;100.00;98880.03;2586366;28;20468;-89
2023/12/27 03:35:35;;;;;;;4.25;1.80;;;;;;;5.30;100.00;98886.97;2591538;28;20446;-88
2023/12/27 03:36:51;;;;;;;3.30;1.50;;;;;;;5.41;100.00;98886.13;2586221;28;20420;-89
2023/12/27 03:38:07;;;;;;;4.68;1.85;;;;;;;5.47;100.00;98886.09;2591503;28;20045;-89
2023/12/27 03:39:23;;;;;;;4.18;1.80;;;;;;;5.40;100.00;98890.41;2596413;28;20511;-89
2023/12/27 03:40:39;;;;;;;4.28;1.80;;;;;;;5.31;100.00;98878.31;2587548;28;20104;-89
2023/12/27 03:41:55;;;;;;;4.22;1.55;;;;;;;5.28;100.00;98880.91;2600825;28;20055;-89
2023/12/27 03:43:11;;;;;;;3.28;1.70;;;;;;;5.25;100.00;98880.03;2604775;28;20275;-89
2023/12/27 03:44:27;;;;;;;3.45;1.88;;;;;;;5.19;100.00;98875.69;2586015;28;20038;-89
2023/12/27 03:45:45;;;;;;;4.72;2.00;;;;;;;5.14;100.00;98878.28;2591330;28;20044;-89
2023/12/27 03:47:01;;;;;;;4.38;1.95;;;;;;;4.85;100.00;98884.28;2596200;28;20446;-89
2023/12/27 03:48:17;;;;;;;2.35;1.40;;;;;;;4.89;100.00;98885.19;2586716;28;20061;-89
2023/12/27 03:49:33;;;;;;;4.22;1.88;;;;;;;4.88;100.00;98892.06;2591099;28;20041;-89
2023/12/27 03:50:49;;;;;;;2.03;1.50;;;;;;;4.85;100.00;98892.06;2596908;28;20052;-89
2023/12/27 03:52:05;;;;;;;4.68;1.67;;;;;;;4.85;100.00;98892.06;2587396;28;20059;-89
2023/12/27 03:53:21;;;;;;;3.58;1.60;;;;;;;4.86;100.00;98887.78;2590668;28;20116;-89
2023/12/27 03:54:38;;;;;;;4.25;1.60;;;;;;;4.71;100.00;98880.81;2587852;28;20080;-89
2023/12/27 03:55:54;;;;;;;3.45;1.40;;;;;;;4.76;100.00;98889.47;2590514;28;20112;-89
2023/12/27 03:57:10;;;;;;;2.65;1.35;;;;;;;4.68;100.00;98896.34;2597979;28;20423;-89
2023/12/27 03:58:26;;;;;;;3.22;1.88;;;;;;;4.65;100.00;98900.69;2586244;28;20419;-89
2023/12/27 03:59:42;;;;;;;5.10;1.60;;;;;;;4.56;100.00;98894.59;2598050;28;20447;-89
2023/12/27 04:00:59;;;;;;;3.97;1.50;;;;;;;4.47;100.00;98890.22;2586187;28;20534;-89
2023/12/27 04:02:15;;;;;;;2.72;1.42;;;;;;;4.43;100.00;98894.56;2592081;28;20068;-89
2023/12/27 04:03:31;;;;;;;3.78;1.33;;;;;;;4.53;100.00;98888.53;2586023;28;20099;-88
2023/12/27 04:04:47;;;;;;;3.25;1.52;;;;;;;4.60;100.00;98897.19;2591610;28;20042;-88
2023/12/27 04:06:03;;;;;;;3.85;1.88;;;;;;;4.63;100.00;98901.53;2586345;28;20084;-89
2023/12/27 04:07:19;;;;;;;2.92;1.45;;;;;;;4.57;100.00;98894.59;2591371;28;20037;-89
2023/12/27 04:08:35;;;;;;;2.22;1.38;;;;;;;4.43;100.00;98893.66;2603047;28;20083;-89
2023/12/27 04:09:51;;;;;;;2.47;1.40;;;;;;;4.45;100.00;98892.81;2604129;28;20029;-89
2023/12/27 04:11:07;;;;;;;2.13;1.38;;;;;;;4.40;100.00;98893.66;2586035;28;20038;-89
2023/12/27 04:12:23;;;;;;;3.45;1.55;;;;;;;4.12;100.00;98901.31;2590120;28;20072;-89
2023/12/27 04:13:40;;;;;;;2.60;1.50;;;;;;;4.24;100.00;98898.78;2595467;28;20128;-89
2023/12/27 04:14:56;;;;;;;2.55;1.40;;;;;;;4.21;100.00;98903.97;2598135;28;20045;-89
2023/12/27 04:16:12;;;;;;;5.50;1.98;;;;;;;3.68;100.00;98904.47;2596638;28;20026;-89
2023/12/27 04:17:28;;;;;;;3.22;1.40;;;;;;;3.62;100.00;98906.16;2587060;28;20037;-89
2023/12/27 04:18:44;;;;;;;1.80;1.40;;;;;;;3.73;100.00;98909.69;2595757;28;20099;-89
2023/12/27 04:20:00;;;;;;;2.20;1.52;;;;;;;3.88;100.00;98919.31;2596328;28;20394;-89
2023/12/27 04:21:17;;;;;;;3.20;1.45;;;;;;;3.67;100.00;98905.31;2603248;28;20093;-89
2023/12/27 04:22:33;;;;;;;4.15;1.40;;;;;;;3.88;100.00;98906.34;2586095;28;20053;-89
2023/12/27 04:23:49;;;;;;;3.42;1.50;;;;;;;3.93;100.00;98917.59;2591181;28;20041;-89
2023/12/27 04:25:05;;;;;;;5.00;1.30;;;;;;;3.67;100.00;98909.66;2586028;28;20046;-89
2023/12/27 04:26:21;;;;;;;4.15;1.65;;;;;;;3.97;100.00;98910.72;2590761;28;20565;-89
2023/12/27 04:27:38;;;;;;;3.25;1.50;;;;;;;4.06;100.00;98904.72;2595749;28;20045;-89
2023/12/27 04:28:54;;;;;;;3.10;1.48;;;;;;;4.12;100.00;98907.38;2597109;28;20591;-89
2023/12/27 04:30:10;;;;;;;2.72;1.63;;;;;;;4.20;100.00;98910.00;2595605;28;20041;-89
2023/12/27 04:31:26;;;;;;;3.72;1.58;;;;;;;4.20;100.00;98923.81;2586892;28;20144;-89
2023/12/27 04:32:42;;;;;;;2.30;1.63;;;;;;;4.01;100.00;98927.16;2579504;28;20046;-89
2023/12/27 04:34:01;;;;;;;3.67;1.65;;;;;;;3.64;100.00;98928.63;2591145;28;20450;-89
2023/12/27 04:35:17;;;;;;;5.18;1.70;;;;;;;3.97;100.00;98921.09;2586084;28;20136;-89
2023/12/27 04:36:35;;;;;;;5.78;2.10;;;;;;;3.93;100.00;98914.16;2590822;28;20045;-89
2023/12/27 04:37:50;;;;;;;5.70;1.80;;;;;;;3.94;100.00;98908.13;2586207;28;20045;-89
2023/12/27 04:39:06;;;;;;;3.75;1.60;;;;;;;3.94;100.00;98908.13;2583255;28;20038;-89
2023/12/27 04:40:23;;;;;;;3.45;1.70;;;;;;;4.03;100.00;98915.06;2580166;28;20045;-89
2023/12/27 04:41:40;;;;;;;3.92;1.60;;;;;;;3.63;100.00;98915.66;2587042;28;20089;-89
2023/12/27 04:42:56;;;;;;;5.20;1.70;;;;;;;3.69;100.00;98918.31;2591923;28;20182;-89
2023/12/27 04:44:12;;;;;;;3.80;1.83;;;;;;;3.82;100.00;98924.44;2577184;28;20054;-89
2023/12/27 04:45:28;;;;;;;3.70;1.80;;;;;;;4.01;100.00;98927.16;2576027;28;20039;-89
2023/12/27 04:46:44;;;;;;;4.50;1.40;;;;;;;3.88;100.00;98931.38;2587683;28;20065;-89
2023/12/27 04:48:00;;;;;;;4.40;1.90;;;;;;;4.04;100.00;98935.78;2591790;28;20042;-89
2023/12/27 04:49:16;;;;;;;3.72;1.58;;;;;;;3.76;100.00;98932.16;2591395;28;20084;-91
2023/12/27 04:50:32;;;;;;;1.63;1.20;;;;;;;3.92;100.00;98933.16;2585753;28;20124;-89
2023/12/27 04:51:48;;;;;;;4.82;1.60;;;;;;;3.98;100.00;98921.94;2590431;28;20128;-89
2023/12/27 04:53:04;;;;;;;3.22;1.35;;;;;;;3.93;100.00;98929.69;2585965;28;20069;-89
2023/12/27 04:54:20;;;;;;;3.08;1.35;;;;;;;3.91;100.00;98926.22;2579632;28;20045;-89
2023/12/27 04:55:36;;;;;;;1.98;1.40;;;;;;;3.94;100.00;98921.91;2590406;28;20049;-89
2023/12/27 04:56:54;;;;;;;3.05;1.52;;;;;;;3.82;100.00;98921.84;2602668;28;20040;-89
2023/12/27 04:58:10;;;;;;;3.50;1.48;;;;;;;3.59;100.00;98926.84;2602830;28;20041;-89
2023/12/27 04:59:27;;;;;;;4.38;1.48;;;;;;;3.68;100.00;98917.41;2595631;28;20048;-89
2023/12/27 05:00:42;;;;;;;4.18;1.58;;;;;;;3.57;100.00;98921.66;2587134;28;20449;-89
2023/12/27 05:01:58;;;;;;;5.00;1.80;;;;;;;3.36;100.00;98922.34;2590019;28;20056;-89
2023/12/27 05:03:14;;;;;;;3.70;1.45;;;;;;;3.40;100.00;98929.28;2592599;28;20041;-89
2023/12/27 05:04:30;;;;;;;3.97;1.63;;;;;;;3.35;100.00;98930.94;2589451;28;20095;-89
2023/12/27 05:05:47;;;;;;;3.88;1.60;;;;;;;3.57;100.00;98936.31;2597277;28;20411;-89
2023/12/27 05:07:03;;;;;;;2.90;1.50;;;;;;;3.53;100.00;98933.72;2585332;28;20103;-89
2023/12/27 05:08:19;;;;;;;5.22;1.40;;;;;;;3.69;100.00;98933.84;2586539;28;20149;-89
2023/12/27 05:09:35;;;;;;;3.10;1.65;;;;;;;3.77;100.00;98934.78;2596003;28;20038;-89
2023/12/27 05:10:51;;;;;;;4.35;1.65;;;;;;;3.79;100.00;98929.59;2596905;28;20039;-90
2023/12/27 05:12:07;;;;;;;4.50;1.70;;;;;;;3.78;100.00;98928.75;2595041;28;20604;-89
2023/12/27 05:13:23;;;;;;;3.63;1.40;;;;;;;3.82;100.00;98927.00;2596038;28;20037;-89
2023/12/27 05:14:39;;;;;;;3.13;1.80;;;;;;;3.80;100.00;98927.03;2585328;28;20037;-89
2023/12/27 05:15:55;;;;;;;3.35;1.70;;;;;;;3.78;100.00;98920.97;2590330;28;20041;-89
2023/12/27 05:17:11;;;;;;;3.30;1.58;;;;;;;3.73;100.00;98914.03;2596097;28;20029;-89
2023/12/27 05:18:27;;;;;;;4.13;1.42;;;;;;;3.70;100.00;98920.03;2586568;28;20099;-89
2023/12/27 05:19:43;;;;;;;2.30;1.50;;;;;;;3.70;100.00;98926.91;2585438;28;20034;-88
2023/12/27 05:21:01;;;;;;;2.88;1.52;;;;;;;3.48;100.00;98927.63;2590757;28;20095;-89
2023/12/27 05:22:17;;;;;;;5.15;1.42;;;;;;;3.48;100.00;98926.75;2585154;28;20069;-89
2023/12/27 05:23:34;;;;;;;2.55;1.50;;;;;;;3.43;100.00;98918.94;2580378;28;20038;-89
2023/12/27 05:24:50;;;;;;;2.70;1.42;;;;;;;3.47;100.00;98919.84;2589962;28;20119;-89
2023/12/27 05:26:06;;;;;;;4.55;1.60;;;;;;;3.50;100.00;98925.94;2596089;28;20037;-89
2023/12/27 05:27:22;;;;;;;1.90;1.50;;;;;;;3.69;100.00;98920.88;2586060;28;20042;-89
2023/12/27 05:28:40;;;;;;;4.20;2.00;;;;;;;3.59;100.00;98926.84;2578894;28;20050;-89
2023/12/27 05:29:56;;;;;;;4.50;1.80;;;;;;;3.73;100.00;98922.63;2596447;28;20441;-89
2023/12/27 05:31:12;;;;;;;5.10;2.03;;;;;;;3.71;100.00;98919.19;2601601;28;20548;-89
2023/12/27 05:32:28;;;;;;;3.60;1.50;;;;;;;3.68;100.00;98921.75;2592382;28;20046;-89
2023/12/27 05:33:44;;;;;;;3.35;1.80;;;;;;;3.68;100.00;98926.94;2589682;28;20037;-89
2023/12/27 05:35:00;;;;;;;3.15;1.80;;;;;;;3.52;100.00;98931.97;2586358;28;20030;-89
2023/12/27 05:36:16;;;;;;;3.60;1.75;;;;;;;3.49;100.00;98931.09;2589265;28;20103;-89
2023/12/27 05:37:32;;;;;;;4.47;2.00;;;;;;;3.55;100.00;98928.53;2585691;28;20566;-89
2023/12/27 05:38:48;;;;;;;2.58;1.55;;;;;;;3.29;100.00;98933.50;2588631;28;20045;-89
2023/12/27 05:40:05;;;;;;;4.32;1.95;;;;;;;3.15;100.00;98934.22;2586428;28;20046;-89
2023/12/27 05:41:24;;;;;;;8.52;2.13;;;;;;;3.14;100.00;98937.66;2589262;28;20037;-89
2023/12/27 05:42:40;;;;;;;4.03;1.77;;;;;;;2.94;100.00;98937.47;2591741;28;20038;-89
2023/12/27 05:43:56;;;;;;;3.53;1.42;;;;;;;2.92;100.00;98931.41;2594676;28;20052;-89
2023/12/27 05:45:12;;;;;;;3.15;1.70;;;;;;;3.10;100.00;98936.75;2599131;28;20063;-88
2023/12/27 05:46:33;;;;;;;3.33;1.83;;;;;;;3.07;100.00;98933.25;2585175;28;20065;-88
2023/12/27 05:47:49;;;;;;;4.10;1.70;;;;;;;3.10;100.00;98930.75;2590750;28;20033;-88
2023/12/27 05:49:05;;;;;;;4.40;2.08;;;;;;;3.34;100.00;98935.28;2585037;28;20143;-89
2023/12/27 05:50:21;;;;;;;2.30;1.42;;;;;;;3.27;100.00;98933.47;2596494;28;20073;-88
2023/12/27 05:51:39;;;;;;;3.70;1.77;;;;;;;3.21;100.00;98933.41;2585033;28;20042;-88
2023/12/27 05:52:55;;;;;;;2.70;1.42;;;;;;;2.92;100.00;98945.19;2586343;28;20026;-88
2023/12/27 05:54:13;;;;;;;3.83;1.48;;;;;;;2.66;100.00;98943.19;2588738;28;20049;-88
2023/12/27 05:55:30;;;;;;;3.78;2.15;;;;;;;2.92;100.00;98945.19;2586775;28;20044;-89
2023/12/27 05:56:46;;;;;;;2.85;1.70;;;;;;;2.88;100.00;98951.19;2589627;28;20106;-88
2023/12/27 05:58:02;;;;;;;4.05;1.85;;;;;;;2.99;100.00;98940.94;2593855;28;20045;-89
2023/12/27 05:59:19;;;;;;;5.13;1.83;;;;;;;2.87;100.00;98946.88;2585186;28;20194;-88